Aktualne dane pomiarowe

Uwaga, wersja testowa! Automatyczne pobieranie danych za pomocą narzędzi lub skryptów to umożliwiających jest zabronione.

Dane meteo z obszaru Polski uzyskane na podstawie depesz SYNOP pobieranych co godzinę z NWS. Najedź myszką na symbol przedstawiony w tabeli, aby uzyskać informacje co do jego znaczenia. Prosimy pamiętać, że to testowa wersja strony, która jeszcze nie jest ukończona. Stworzono również jest krótki FAQ dotyczący korzystania z tej podstrony Anomalie temperatury w chwili obecnej odniesione są do okresu referencyjnego 1951-2016. Okres ten będzie później zmieniony na 1981-2010. Kliknij ikonę aby pobrać plik CSV. Kliknij ikonę aby wygenerować mapę synoptyczną dla danego terminu.

Wybierz Datę:    

        

Elbląg-Milejewo (12160)

Dane terminowe dla wybranej stacji. Kliknij datę, aby otrzymać dane z tego terminu dla wszystkich stacji.

TemperaturaZachmurzenieWiatrCiśnienieOpadyPogoda
 Data t td wb tx tn tg rh  Nt Nl Cl Cm Ch ws wd g1 g2 wx mslp ppp ch 24h 12h t ww ww w1 w2  
2019-07-12 23:00:00 12.6 11.2 11.6--- 9120.0wx-wxwx2wx--21010.9 988.8 0.0---------
2019-07-12 22:00:00 12.9 11.5 11.9--- 9120.0wx-wxwx2wx---1011.0 988.9 0.3---------
2019-07-12 21:00:00 12.9 11.6 12.0--- 9220.0wx-wxwx3wx--31010.9 988.8 0.5---------
2019-07-12 20:00:00 13.3 11.4 12.0--- 8820.0wx-wxwx3wx--31010.9 988.8 0.5---------
2019-07-12 19:00:00 13.9 11.8 12.5--- 8720.0wx-wxwx2wx--21010.6 988.6 0.3---------
2019-07-12 18:00:00 15.3 11.1 12.6 19.4 15.3- 7620.0wx-wxwx2wx--21010.2 988.3 0.0- 0.012------
2019-07-12 17:00:00 16.6 9.8 12.4--- 6420.0wx-wx3wx--31010.1 988.3 -0.3---------
2019-07-12 16:00:00 17.5 9.9 12.9--- 6120.0wxwxwxwx3wx--31010.0 988.3 -0.4---------
2019-07-12 15:00:00 18.5 9.8 13.3--- 5720.0wxwxwxwx3wx--31009.9 988.3 -0.6---------
2019-07-12 14:00:00 19.2 9.1 13.3--- 5220.0wxwxwxwxwx3wx--31010.2 988.6 -0.4---------
2019-07-12 13:00:00 18.9 9.4 13.3--- 5420.0wxwxwxwxwx3wx--31010.3 988.7 -0.2---------
2019-07-12 12:00:00 18.9 10.5 13.8--- 5820.0wxwxwxwxwx3wx--31010.5 988.9 0.1- 0.06------
2019-07-12 11:00:00 18.5 10.8 13.8--- 6120.0wxwxwxwxwx4wx--41010.7 989.0 0.3---------
2019-07-12 10:00:00 18.9 10.5 13.8--- 5820.0wxwxwxwxwx3wx--31010.5 988.9 0.3---------
2019-07-12 09:00:00 18.5 12.0 14.4--- 6620.0wxwxwxwxwx3wx--31010.5 988.8 0.2---------
2019-07-12 08:00:00 18.1 12.1 14.3--- 6820.0wxwxwxwxwx2wx--21010.4 988.7 0.1---------
2019-07-12 07:00:00 17.1 11.8 13.7--- 7120.0wxwxwxwxwx2wx--21010.4 988.6 0.2---------
2019-07-12 06:00:00 16.3 12.5 13.8 16.3 13.3 13 7820.0wxwxwxwxwx2wx--21010.4 988.6 0.1--12----- 13.4
2019-07-12 05:00:00 14.8 11.8 12.8--- 8220.0wxwxwxwxwx2wx---1010.5 988.6 0.0---------
2019-07-12 04:00:00 14.1 11.1 12.1--- 8220.0wxwxwxwx2wx--21010.4 988.4 -0.4---------
2019-07-12 03:00:00 13.4 10.7 11.6--- 8420.0wxwxwxwx2wx--21010.5 988.5 -0.4---------
2019-07-12 02:00:00 13.4 10.0 11.2--- 8020.0wxwxwxwx2wx--21010.6 988.6 -0.6---------
2019-07-12 01:00:00 14.2 10.0 11.5--- 7620.0wxwxwxwx2wx--21010.8 988.8 -0.5---------
2019-07-12 00:00:00 14.0 9.6 11.2--- 7520.0wxwxwxwx2wx--21010.9 988.9 -0.2--6wx---
2019-07-11 23:00:00 14.3 9.9 11.5--- 7520.0wx-wx2wx--21011.2 989.2 -0.1---------
2019-07-11 22:00:00 14.6 10.2 11.8--- 7520.0wx-wx2wx--21011.3 989.3 -0.1---------
2019-07-11 21:00:00 15.0 9.8 11.7--- 7120.0wx-wx2wx--21011.0 989.1 -0.1---------
2019-07-11 20:00:00 15.2 10.4 12.1--- 7320.0wx-wxwx2wx--21011.2 989.3 -0.1---------
2019-07-11 19:00:00 15.1 10.1 11.9--- 7220.0wx-wxwx2wx--21011.3 989.4 0.0---------
2019-07-11 18:00:00 16.1 10.8 12.7 18.7 13.6- 7120.0wx-wxwx3wx--31011.0 989.2 -0.1- 0.012------
2019-07-11 17:00:00 16.7 10.5 12.8--- 6720.0wx-wxwx4wx--41011.2 989.4 -0.3---------
2019-07-11 16:00:00 17.6 7.6 11.9--- 5220.0wxwxwxwxwx4wx--41011.1 989.4 -0.3---------
2019-07-11 15:00:00 18.5 6.0 11.6--- 4420.0wxwxwxwx3wx--31011.0 989.3 -0.4---------
2019-07-11 14:00:00 18.1 6.9 11.8--- 4820.0wxwxwxwxwx3wx--31011.4 989.7 0.0---------
2019-07-11 13:00:00 17.7 6.5 11.5--- 4820.0wxwxwxwxwx4wx--41011.4 989.7 -0.2---------
2019-07-11 12:00:00 17.4 9.3 12.6--- 5920.0wxwxwxwx3wx--31011.5 989.7 -0.2- 0.06------
2019-07-11 11:00:00 16.9 10.3 12.8--- 6520.0wxwxwxwxwx3wx--31011.5 989.7 0.0---------
2019-07-11 10:00:00 16.1 9.5 12.1--- 6520.0wxwxwxwx3wx--31011.8 989.9 0.5---------
2019-07-11 09:00:00 16.0 10.3 12.4--- 6920.0wxwxwxwx3wx--31011.8 989.9 0.6---------
2019-07-11 08:00:00 14.7 8.9 11.1--- 6820.0wxwxwx3wx--31011.7 989.7 0.6---------
2019-07-11 07:00:00 14.5 9.3 11.3--- 7115.0wxwxwx3wx---1011.4 989.4 0.4---------
2019-07-11 06:00:00 14.3 11.8 12.6 14.5 11.3 11 8510.0wxwxwx3wx--31011.3 989.3 0.3 1.8 0.312----- 4.6
2019-07-11 05:00:00 13.8 10.8 11.8--- 8220.0wxwxwx2wx--21011.1 989.1 0.1---------
2019-07-11 04:00:00 12.3 10.2 10.9--- 8720.0wxwxwx1wx--11011.1 989.0 -0.2---------
2019-07-11 03:00:00 12.2 9.9 10.7--- 8620.0wxwxwx2wx--21011.1 989.0 -0.2---------
2019-07-11 02:00:00 11.7 9.6 10.3--- 8720.0wxwxwx2wx--21011.2 989.0 -0.2---------
2019-07-11 01:00:00 11.6 9.7 10.3--- 8820.0wxwxwx2wx--21011.4 989.2 -0.2---------
2019-07-11 00:00:00 12.0 9.9 10.6--- 8720.0wxwxwx3wx--31011.4 989.2 -0.2- 0.36wx---
2.0 ms

 

Print Friendly, PDF & Email